METAR Data
IDs: Format: Raw Decoded Include TAF

Data at: 0456 UTC 26 Sep 2018

KOMA 260452Z 28003KT 10SM CLR 13/07 A3017 RMK AO2 SLP214 T01280067
KOMA 260352Z 35004KT 10SM CLR 12/08 A3016 RMK AO2 SLP213 T01220078
KOMA 260252Z 30006KT 10SM CLR 13/07 A3015 RMK AO2 SLP211 T01330072 51023
KOMA 260152Z 30004KT 10SM CLR 14/08 A3014 RMK AO2 SLP204 T01390078
KOMA 260052Z 30005KT 10SM FEW035 FEW250 15/08 A3012 RMK AO2 SLP197 T01500083
KOMA 252352Z 33008KT 10SM FEW035 FEW250 16/08 A3008 RMK AO2 SLP185 T01560083 10189 20144 53018
KOMA 252252Z 33011KT 10SM FEW035 SCT050 SCT250 17/08 A3006 RMK AO2 SLP177 T01720083
KOMA 252152Z 32019G25KT 10SM SCT035 SCT250 18/08 A3005 RMK AO2 SLP171 T01780083
KOMA 252052Z 33016G22KT 10SM SCT033 BKN120 18/10 A3003 RMK AO2 SLP166 T01830100 53010
KOMA 251959Z 33016G22KT 10SM SCT016 SCT024 BKN032 BKN130 18/12 A3002 RMK AO2 T01780117
KOMA 251952Z 33014KT 10SM SCT016 BKN024 BKN120 18/12 A3002 RMK AO2 SLP160 T01780117
KOMA 251942Z 33018G24KT 10SM BKN016 BKN022 16/12 A3002 RMK AO2 T01610117
KOMA 251852Z 33014G20KT 7SM OVC012 15/12 A3001 RMK AO2 SLP159 T01500122
KOMA 251752Z 33014KT 10SM BKN014 OVC040 15/12 A3000 RMK AO2 SLP156 60064 T01500117 10167 20139 53016
KOMA 251732Z 33014KT 10SM BKN014 OVC040 14/12 A3000 RMK AO2 T01440117
KOMA 251705Z 34016G22KT 10SM BKN015 OVC037 14/11 A3000 RMK AO2 T01440111
KOMA 251652Z 33012G21KT 10SM BKN012 BKN036 OVC075 15/12 A2999 RMK AO2 RAE06 SLP151 P0000 T01500122
KOMA 251616Z 34014G24KT 10SM BKN010 BKN027 OVC080 14/12 A2997 RMK AO2 LTG DSNT S RAE06 P0000 T01440122
KOMA 251552Z 34014G23KT 10SM -RA FEW009 BKN031 OVC065 14/12 A2996 RMK AO2 SLP141 P0008 T01390122
KOMA 251550Z 34015G23KT 8SM -RA FEW011 BKN031 OVC100 14/12 A2995 RMK AO2 P0008
KOMA 251539Z 36018G23KT 1 1/2SM R14R/4500VP6000FT +RA BR SCT010 BKN022 OVC065 14/12 A2993 RMK AO2 PRESFR P0003 T01390122
KOMA 251452Z 33014G23KT 10SM -RA SCT009 BKN018 OVC070 14/12 A2993 RMK AO2 PK WND 31032/1404 WSHFT 1353 SLP132 CB DSNT NE MOV E P0053 60056 T01390122 53025 $
KOMA 251448Z 34018G26KT 6SM -RA BR SCT009 BKN018 OVC070 14/12 A2992 RMK AO2 PK WND 31032/1404 WSHFT 1353 LTG DSNT NE CB DSNT NE MOV E P0053 $
KOMA 251443Z COR 34018G26KT 4SM TSRA BR FEW007 BKN028CB OVC065 14/12 A2992 RMK AO2 PK WND 31032/1404 WSHFT 1353 LTG DSNT NE AND E TS NE MOV E P0053 T01390122 $
KOMA 251431Z 35016G26KT 3SM TSRA BR SCT005 BKN025CB OVC065 14/13 A2990 RMK AO2 PK WND 31032/1404 WSHFT 1353 LTG DSNT N-E TS N-E MOV E P0049 T01440128 $
KOMA 251423Z COR 36017G28KT 1SM R14R/6000VP6000FT TSRA BR SCT005 SCT010 OVC025CB 14/13 A2988 RMK AO2 PK WND 31032/1404 WSHFT 1353 SFC VIS 2 1/2 LTG DSNT N-E RAEMM TSE1358B00 TS N-E MOV E P0045 T01440128 $
KOMA 251413Z 35019G32KT 1SM R14R/3500VP6000FT +TSRA BR BKN005 BKN010 OVC020CB 14/13 A2988 RMK AO2 PK WND 31032/1404 WSHFT 1353 LTG DSNT NW-E TSE1358B00 OCNL LTGIC OHD TS OHD MOV E P0034 T01440133
KOMA 251402Z 30020G30KT 3/4SM R14R/3000VP6000FT +TSRA BR BKN005 BKN010 OVC020CB 15/14 A2994 RMK AO2 PK WND 30030/1359 TWR VIS 1 LTG DSNT ALQDS TSE1358B00 PRESRR OCNL LTGIC OHD TS OHD MOV E P0004 T01500139
KOMA 251352Z 35009KT 1SM R14R/5000VP6000FT -TSRA BR BKN006 BKN012 OVC020CB 15/14 A2986 RMK AO2 LTG DSNT ALQDS RAB21 TSB43 SLP108 TS W-N MOV E P0003 T01500139
KOMA 251345Z 35008KT 1SM R14R/5000VP6000FT -TSRA BR BKN006 BKN012 OVC020CB 15/14 A2986 RMK AO2 SFC VIS 1 3/4 LTG DSNT ALQDS RAB21 TSB43 TS W-N MOV E P0002 T01500139
KOMA 251337Z 33010KT 1SM R14R/P6000FT -RA BR BKN008 OVC015 15/14 A2987 RMK AO2 SFC VIS 2 LTG DSNT ALQDS RAB21 CIG 005V010 P0000 T01500139
KOMA 251324Z 33012KT 1SM R14R/6000VP6000FT -RA BR OVC010 16/13 A2986 RMK AO2 SFC VIS 1 1/2 LTG DSNT W-NE RAB21 CIG 006V013 P0000 T01560133
KOMA 251252Z 00000KT 10SM OVC014 16/13 A2984 RMK AO2 LTG DSNT N AND NW SLP098 T01610133
KOMA 251222Z 02007KT 10SM OVC014 16/13 A2984 RMK AO2 LTG DSNT NW T01610133
KOMA 251152Z 36006KT 10SM OVC019 16/13 A2985 RMK AO2 SLP104 T01610133 10178 20156 56006
KOMA 251052Z 35005KT 10SM OVC022 16/13 A2985 RMK AO2 SLP103 T01610133
KOMA 251044Z 35003KT 10SM BKN022 16/13 A2986 RMK AO2 T01560133
KOMA 251012Z 01005KT 10SM SCT024 BKN070 16/13 A2985 RMK AO2 T01560133
KOMA 250952Z 01007KT 10SM OVC024 16/13 A2986 RMK AO2 SLP106 T01610128
KOMA 250852Z 35008KT 10SM BKN029 OVC034 16/13 A2987 RMK AO2 SLP109 T01610128 58002
KOMA 250841Z 35010KT 10SM BKN029 OVC034 16/13 A2988 RMK AO2 T01610128
KOMA 250752Z 35010KT 10SM OVC030 17/13 A2989 RMK AO2 SLP115 T01670133
KOMA 250652Z 33010KT 10SM OVC031 17/13 A2989 RMK AO2 SLP113 T01720133
KOMA 250552Z 35009KT 10SM OVC032 18/14 A2988 RMK AO2 SLP111 T01780139 10250 20178 402610139 50007
KOMA 250452Z 35010KT 10SM FEW035 BKN042 BKN075 18/14 A2988 RMK AO2 SLP113 T01830144
KOMA 250352Z 35006KT 10SM FEW040 SCT075 BKN250 19/15 A2987 RMK AO2 SLP109 T01890150
KOMA 250252Z 34010KT 10SM BKN040 BKN250 20/15 A2986 RMK AO2 SLP105 T02000150 53022
KOMA 250152Z 35015G20KT 10SM SCT040 BKN055 OVC250 21/16 A2984 RMK AO2 SLP099 T02110156
KOMA 250052Z 00000KT 10SM SCT040 SCT140 BKN250 21/17 A2981 RMK AO2 SLP089 T02110167
KOMA 242352Z 19005KT 10SM FEW040 FEW140 BKN250 25/16 A2979 RMK AO2 SLP082 T02500156 10261 20244 55007
KOMA 242252Z 18007KT 10SM SCT040 BKN250 26/16 A2979 RMK AO2 SLP081 T02560161
KOMA 242152Z 24004KT 10SM SCT040 BKN250 25/16 A2980 RMK AO2 SLP084 T02500161
KOMA 242052Z 26004KT 10SM SCT044 BKN250 26/17 A2981 RMK AO2 SLP090 T02610167 56017
KOMA 241952Z 23008KT 10SM SCT043 BKN250 26/16 A2982 RMK AO2 SLP091 T02560156
KOMA 241852Z 18008KT 10SM SCT040 BKN250 26/16 A2984 RMK AO2 SLP098 T02560156
KOMA 241752Z 19012G19KT 10SM SCT029 BKN250 24/15 A2986 RMK AO2 SLP107 T02440150 10244 20144 58009